Time;durP1;ratioP1;P1;durP2;ratioP2;P2;SDS_P1;SDS_P2;PMS_P1;PMS_P2;Temp;Humidity;BMP_temperature;BMP_pressure;BME280_temperature;BME280_humidity;BME280_pressure;Samples;Min_cycle;Max_cycle;Signal;HPM_P1;HPM_P2
2024/04/13 00:01:42;;;;;;;16.40;10.60;;;;;;;14.46;69.88;102109.88;5211661;27;20217;-74
2024/04/13 00:04:08;;;;;;;16.83;11.00;;;;;;;14.70;68.67;102111.13;5211867;27;20225;-74
2024/04/13 00:06:33;;;;;;;21.23;10.70;;;;;;;14.64;68.37;102104.03;5211575;27;20244;-74
2024/04/13 00:08:58;;;;;;;13.77;10.80;;;;;;;14.53;69.24;102107.31;5211153;27;20382;-74
2024/04/13 00:11:24;;;;;;;15.63;9.87;;;;;;;14.49;69.04;102094.16;5182703;27;20259;-74
2024/04/13 00:13:49;;;;;;;18.07;10.27;;;;;;;14.52;68.76;102101.19;5182693;27;20316;-74
2024/04/13 00:16:15;;;;;;;15.73;11.03;;;;;;;14.94;67.83;102091.34;5211848;27;20267;-73
2024/04/13 00:18:41;;;;;;;12.80;9.10;;;;;;;14.77;67.77;102076.19;5211399;27;20301;-72
2024/04/13 00:21:06;;;;;;;15.57;9.60;;;;;;;15.09;67.11;102080.13;5211655;27;20453;-74
2024/04/13 00:23:32;;;;;;;15.33;9.63;;;;;;;15.23;67.02;102080.28;5211634;27;20217;-74
2024/04/13 00:25:57;;;;;;;14.43;9.40;;;;;;;14.53;68.34;102076.72;5182221;27;20621;-73
2024/04/13 00:28:22;;;;;;;13.23;8.77;;;;;;;14.73;67.83;102077.03;5211805;27;20245;-74
2024/04/13 00:30:48;;;;;;;16.30;9.07;;;;;;;14.39;68.48;102079.13;5211786;27;20611;-74
2024/04/13 00:33:13;;;;;;;10.90;8.40;;;;;;;14.84;67.14;102066.66;5212073;27;20259;-74
2024/04/13 00:35:39;;;;;;;12.40;8.53;;;;;;;14.70;67.55;102071.75;5211388;27;20225;-74
2024/04/13 00:38:05;;;;;;;17.10;8.73;;;;;;;14.70;67.75;102074.38;5211249;27;20274;-73
2024/04/13 00:40:30;;;;;;;12.37;8.93;;;;;;;14.65;68.49;102068.16;5180790;27;20453;-74
2024/04/13 00:43:05;;;;;;;11.93;8.00;;;;;;;14.98;67.34;102066.88;5210318;27;20241;-73
2024/04/13 00:45:42;;;;;;;10.73;7.77;;;;;;;14.70;68.23;102061.25;5211399;27;20249;-73
2024/04/13 00:48:09;;;;;;;11.93;8.60;;;;;;;14.85;66.90;102067.56;5211071;27;20573;-73
2024/04/13 00:50:34;;;;;;;11.13;8.20;;;;;;;14.70;67.23;102063.88;5211580;27;20437;-73
2024/04/13 00:53:00;;;;;;;15.93;8.70;;;;;;;14.77;67.06;102057.81;5211127;27;20526;-73
2024/04/13 00:55:26;;;;;;;10.80;7.70;;;;;;;15.09;66.29;102057.38;5181903;27;20237;-74
2024/04/13 00:57:51;;;;;;;14.80;7.70;;;;;;;14.52;68.42;102048.72;5210928;27;20449;-74
2024/04/13 01:00:19;;;;;;;12.63;8.10;;;;;;;14.73;67.49;102048.16;5210748;27;20284;-74
2024/04/13 01:02:46;;;;;;;12.13;8.70;;;;;;;15.04;66.77;102043.28;5182275;27;20233;-73
2024/04/13 01:05:13;;;;;;;14.73;9.03;;;;;;;14.77;67.33;102049.94;5211621;27;20785;-74
2024/04/13 01:07:40;;;;;;;9.77;7.50;;;;;;;14.99;66.64;102043.25;5210897;27;20480;-73
2024/04/13 01:10:06;;;;;;;17.20;10.60;;;;;;;15.13;66.70;102046.03;5211378;27;20457;-74
2024/04/13 01:12:31;;;;;;;12.20;8.73;;;;;;;14.79;67.14;102040.38;5211051;27;20513;-73
2024/04/13 01:14:57;;;;;;;14.33;10.50;;;;;;;14.69;67.36;102045.47;5210965;27;21050;-73
2024/04/13 01:17:22;;;;;;;16.63;10.20;;;;;;;14.91;66.74;102046.63;5210972;27;20842;-73
2024/04/13 01:19:47;;;;;;;14.27;10.30;;;;;;;14.88;67.17;102046.59;5211073;27;20810;-74
2024/04/13 01:22:12;;;;;;;14.07;9.90;;;;;;;15.04;66.34;102039.81;5210883;27;20224;-74
2024/04/13 01:24:40;;;;;;;10.93;9.60;;;;;;;15.03;66.33;102038.03;5210833;27;20268;-73
2024/04/13 01:27:07;;;;;;;13.33;8.47;;;;;;;14.52;67.14;102037.31;5210838;27;20271;-74
2024/04/13 01:29:32;;;;;;;13.03;8.70;;;;;;;14.70;66.87;102039.38;5211308;27;20489;-73
2024/04/13 01:31:57;;;;;;;11.40;8.13;;;;;;;14.82;66.65;102037.78;5211557;27;20425;-74
2024/04/13 01:34:23;;;;;;;12.37;8.20;;;;;;;14.63;67.53;102031.41;5211035;27;20233;-74
2024/04/13 01:36:48;;;;;;;12.83;9.03;;;;;;;14.80;66.98;102033.38;5210667;27;20226;-73
2024/04/13 01:39:13;;;;;;;12.13;8.03;;;;;;;14.60;67.51;102030.44;5210759;27;20233;-74
2024/04/13 01:41:41;;;;;;;12.93;8.10;;;;;;;14.73;67.31;102031.53;5210763;27;20241;-73
2024/04/13 01:44:06;;;;;;;14.63;7.10;;;;;;;14.79;67.00;102027.25;5181639;27;20256;-73
2024/04/13 01:46:34;;;;;;;11.70;7.80;;;;;;;14.53;68.28;102031.22;5210521;27;20461;-74
2024/04/13 01:49:00;;;;;;;13.73;8.27;;;;;;;14.96;66.76;102023.94;5210393;27;20285;-74
2024/04/13 01:51:25;;;;;;;11.13;8.07;;;;;;;14.42;68.24;102023.19;5209891;27;20501;-74
2024/04/13 01:53:50;;;;;;;11.40;7.90;;;;;;;14.52;67.91;102021.56;5210403;27;20267;-73
2024/04/13 01:56:16;;;;;;;11.27;7.10;;;;;;;14.84;67.14;102023.78;5210456;27;20225;-74
2024/04/13 01:58:41;;;;;;;10.87;7.93;;;;;;;15.01;66.59;102024.88;5210241;27;20333;-74
2024/04/13 02:01:07;;;;;;;10.63;7.87;;;;;;;14.94;66.83;102017.81;5210414;27;20272;-73
2024/04/13 02:03:32;;;;;;;10.93;7.97;;;;;;;14.77;67.39;102022.84;5210719;27;20415;-74
2024/04/13 02:06:04;;;;;;;12.00;7.20;;;;;;;14.44;68.55;102017.13;5181311;27;20686;-74
2024/04/13 02:08:32;;;;;;;11.47;7.60;;;;;;;14.67;67.54;102013.97;5210385;27;20284;-74
2024/04/13 02:10:57;;;;;;;9.80;7.57;;;;;;;14.47;68.15;102005.78;5210155;27;20465;-74
2024/04/13 02:13:23;;;;;;;17.17;7.70;;;;;;;14.76;67.85;102010.56;5210177;27;20429;-74
2024/04/13 02:15:48;;;;;;;12.43;7.30;;;;;;;14.80;67.24;102008.00;5210176;27;20221;-74
2024/04/13 02:18:13;;;;;;;9.50;7.03;;;;;;;14.55;68.10;102011.16;5210062;27;20346;-74
2024/04/13 02:20:40;;;;;;;9.70;8.20;;;;;;;14.65;68.39;102013.94;5210211;27;20272;-73
2024/04/13 02:23:06;;;;;;;12.40;7.97;;;;;;;14.65;68.22;102003.44;5210397;27;20268;-73
2024/04/13 02:25:31;;;;;;;8.13;7.13;;;;;;;14.94;67.06;102002.06;5210196;27;20429;-74
2024/04/13 02:27:56;;;;;;;10.90;7.43;;;;;;;14.54;67.82;102005.00;5209538;27;20287;-74
2024/04/13 02:30:22;;;;;;;12.30;7.40;;;;;;;14.89;66.93;102001.09;5209813;27;20272;-74
2024/04/13 02:32:47;;;;;;;9.27;7.07;;;;;;;14.87;67.22;102008.06;5209900;27;20233;-74
2024/04/13 02:35:13;;;;;;;9.53;6.93;;;;;;;14.58;67.63;102004.19;5210069;27;20335;-74
2024/04/13 02:37:38;;;;;;;11.50;7.60;;;;;;;14.64;68.31;102003.44;5209506;27;20288;-74
2024/04/13 02:40:07;;;;;;;9.37;6.70;;;;;;;14.64;68.93;101998.19;5209708;27;20724;-73
2024/04/13 02:42:33;;;;;;;8.50;7.67;;;;;;;14.88;67.39;101994.09;5210236;27;20268;-74
2024/04/13 02:44:59;;;;;;;7.97;6.90;;;;;;;14.33;69.47;102000.34;5209859;27;20448;-74
2024/04/13 02:47:25;;;;;;;7.70;6.83;;;;;;;14.79;67.71;101992.25;5209534;27;20230;-73
2024/04/13 02:49:50;;;;;;;11.57;7.57;;;;;;;14.85;67.87;101994.06;5209509;27;20271;-74
2024/04/13 02:52:16;;;;;;;13.37;7.83;;;;;;;14.76;68.30;102000.06;5209734;27;20453;-74
2024/04/13 02:54:41;;;;;;;8.50;7.10;;;;;;;14.65;68.07;102002.53;5209688;27;20694;-73
2024/04/13 02:57:06;;;;;;;9.47;7.60;;;;;;;14.31;69.35;102002.97;5209728;27;20288;-74
2024/04/13 02:59:31;;;;;;;9.27;7.20;;;;;;;14.78;68.61;102001.84;5209619;27;20639;-73
2024/04/13 03:01:57;;;;;;;12.30;7.43;;;;;;;14.85;67.79;101994.06;5209589;27;20221;-74
2024/04/13 03:04:22;;;;;;;10.40;7.10;;;;;;;14.77;68.66;101996.59;5208244;27;20237;-73
2024/04/13 03:06:47;;;;;;;8.90;7.30;;;;;;;14.35;69.11;101993.38;5209551;27;20568;-74
2024/04/13 03:09:13;;;;;;;10.07;7.37;;;;;;;14.27;69.40;101989.75;5209165;27;20299;-74
2024/04/13 03:11:38;;;;;;;7.83;6.77;;;;;;;14.75;68.73;101980.81;5209342;27;20268;-74
2024/04/13 03:14:04;;;;;;;7.83;7.00;;;;;;;14.69;68.20;101978.09;5180276;27;20284;-72
2024/04/13 03:16:29;;;;;;;8.30;6.20;;;;;;;14.68;69.31;101981.63;5209726;27;20339;-72
2024/04/13 03:18:54;;;;;;;7.63;6.67;;;;;;;14.85;68.03;101983.56;5209342;27;20237;-74
2024/04/13 03:21:20;;;;;;;9.03;7.60;;;;;;;14.79;68.18;101982.63;5209447;27;20264;-74
2024/04/13 03:23:45;;;;;;;13.43;8.03;;;;;;;14.73;68.47;101985.16;5209222;27;20271;-74
2024/04/13 03:26:10;;;;;;;15.13;12.10;;;;;;;14.20;69.96;101983.53;5209367;27;20340;-74
2024/04/13 03:28:36;;;;;;;10.00;6.80;;;;;;;14.80;68.70;101979.13;5209156;27;20263;-74
2024/04/13 03:31:02;;;;;;;10.67;7.60;;;;;;;14.64;68.80;101990.31;5209402;27;20221;-74
2024/04/13 03:33:28;;;;;;;9.73;7.17;;;;;;;14.55;69.51;101998.91;5209183;27;20249;-74
2024/04/13 03:35:54;;;;;;;9.00;7.20;;;;;;;14.72;69.96;102004.41;5209144;27;20478;-74
2024/04/13 03:38:19;;;;;;;10.80;7.10;;;;;;;14.80;68.98;101997.50;5208757;27;20660;-74
2024/04/13 03:40:44;;;;;;;13.17;7.33;;;;;;;14.79;69.49;101994.88;5209145;27;20275;-74
2024/04/13 03:43:10;;;;;;;9.97;7.47;;;;;;;14.90;68.99;101989.75;5179782;27;20253;-74
2024/04/13 03:45:35;;;;;;;8.60;6.80;;;;;;;14.69;69.70;101987.72;5208966;27;20269;-74
2024/04/13 03:48:01;;;;;;;8.10;6.73;;;;;;;14.53;69.82;101997.09;5208674;27;20241;-74
2024/04/13 03:50:26;;;;;;;12.77;7.13;;;;;;;14.78;69.49;101991.34;5209016;27;20233;-74
2024/04/13 03:52:52;;;;;;;13.33;7.23;;;;;;;14.86;69.08;101990.56;5208628;27;20621;-74
2024/04/13 03:55:17;;;;;;;11.20;7.43;;;;;;;14.75;69.57;101980.81;5209041;27;20237;-74
2024/04/13 03:57:42;;;;;;;9.80;7.30;;;;;;;14.90;69.39;101979.25;5208304;27;20272;-74
2024/04/13 04:00:08;;;;;;;9.00;7.67;;;;;;;14.58;69.73;101982.31;5208601;27;20567;-74
2024/04/13 04:02:34;;;;;;;8.87;6.77;;;;;;;14.74;70.07;101973.78;5208844;27;20796;-74
2024/04/13 04:05:00;;;;;;;10.80;7.43;;;;;;;14.54;70.48;101972.63;5208706;27;20217;-73
2024/04/13 04:07:25;;;;;;;8.03;7.17;;;;;;;14.83;69.70;101973.03;5208691;27;20918;-73
2024/04/13 04:09:51;;;;;;;8.87;7.33;;;;;;;14.92;69.36;101969.63;5208632;27;20332;-75
2024/04/13 04:12:17;;;;;;;8.67;7.80;;;;;;;14.95;69.75;101967.94;5208700;27;20320;-74
2024/04/13 04:14:42;;;;;;;9.90;6.70;;;;;;;14.67;70.03;101969.34;5209996;27;20691;-74
2024/04/13 04:17:07;;;;;;;9.30;7.10;;;;;;;14.52;70.39;101974.34;5212962;27;20860;-74
2024/04/13 04:19:33;;;;;;;8.23;6.50;;;;;;;14.73;70.58;101969.41;5212423;27;20313;-74
2024/04/13 04:21:58;;;;;;;8.50;7.47;;;;;;;15.10;69.46;101968.94;5211659;27;20320;-74
2024/04/13 04:24:23;;;;;;;8.37;7.07;;;;;;;14.81;69.78;101965.13;5212042;27;20453;-74
2024/04/13 04:26:49;;;;;;;8.90;7.47;;;;;;;14.82;70.86;101968.66;5212068;27;20225;-74
2024/04/13 04:29:15;;;;;;;7.40;6.60;;;;;;;14.92;70.18;101972.25;5211897;27;20237;-74
2024/04/13 04:31:41;;;;;;;11.60;7.40;;;;;;;14.69;70.80;101971.97;5211919;27;20636;-74
2024/04/13 04:34:07;;;;;;;7.70;6.90;;;;;;;14.92;70.17;101972.25;5211923;27;20507;-75
2024/04/13 04:36:32;;;;;;;8.17;7.33;;;;;;;15.02;69.87;101966.25;5211904;27;20531;-74
2024/04/13 04:38:58;;;;;;;15.90;11.47;;;;;;;14.74;70.70;101967.69;5211617;27;20481;-75
2024/04/13 04:41:23;;;;;;;15.00;12.50;;;;;;;14.28;71.44;101971.41;5211449;27;20238;-74
2024/04/13 04:43:49;;;;;;;9.90;8.40;;;;;;;14.97;70.64;101973.19;5211440;27;20226;-73
2024/04/13 04:46:15;;;;;;;9.87;7.60;;;;;;;14.99;70.73;101971.44;5182989;27;20236;-74
2024/04/13 04:48:40;;;;;;;11.73;8.27;;;;;;;15.01;69.84;101968.88;5182268;27;20589;-72
2024/04/13 04:51:05;;;;;;;7.03;6.10;;;;;;;14.65;71.50;101981.56;5211406;27;20896;-72
2024/04/13 04:53:30;;;;;;;8.73;7.30;;;;;;;15.11;70.14;101966.34;5211720;27;20221;-73
2024/04/13 04:55:58;;;;;;;7.90;7.10;;;;;;;14.81;70.89;101965.13;5211835;27;20237;-74
2024/04/13 04:58:24;;;;;;;8.73;7.17;;;;;;;14.50;72.22;101971.69;5211689;27;20297;-74
2024/04/13 05:00:50;;;;;;;8.37;7.20;;;;;;;14.64;72.58;101959.69;5182879;27;20442;-74
2024/04/13 05:03:16;;;;;;;7.53;6.70;;;;;;;14.75;72.20;101957.19;5211418;27;20891;-75
2024/04/13 05:05:42;;;;;;;7.80;6.60;;;;;;;15.29;69.76;101962.16;5211232;27;20225;-73
2024/04/13 05:08:07;;;;;;;9.60;6.90;;;;;;;14.66;70.73;101954.44;5211202;27;20271;-73
2024/04/13 05:10:32;;;;;;;8.00;7.20;;;;;;;14.82;70.95;101959.00;5211288;27;20453;-73
2024/04/13 05:12:58;;;;;;;32.70;28.23;;;;;;;14.61;71.64;101964.88;5211130;27;20233;-73
2024/04/13 05:15:23;;;;;;;8.63;7.37;;;;;;;14.67;72.00;101964.09;5182383;27;20325;-72
2024/04/13 05:17:49;;;;;;;9.87;7.90;;;;;;;14.56;72.24;101961.31;5182564;27;20253;-73
2024/04/13 05:20:14;;;;;;;10.60;7.63;;;;;;;14.71;72.23;101967.63;5210948;27;20662;-72
2024/04/13 05:22:39;;;;;;;11.07;8.37;;;;;;;15.05;71.44;101966.28;5211205;27;20229;-73
2024/04/13 05:25:06;;;;;;;10.00;7.20;;;;;;;14.95;71.33;101977.53;5210870;27;20225;-74
2024/04/13 05:27:31;;;;;;;8.40;7.03;;;;;;;14.72;72.75;101988.66;5209919;27;20249;-74
2024/04/13 05:30:02;;;;;;;12.73;7.57;;;;;;;15.37;71.29;101989.38;5181542;27;20478;-75
2024/04/13 05:32:27;;;;;;;9.03;7.10;;;;;;;14.96;71.58;101981.94;5181748;27;20786;-74
2024/04/13 05:34:53;;;;;;;10.70;8.37;;;;;;;15.13;72.16;101985.63;5210801;27;20437;-74
2024/04/13 05:37:18;;;;;;;7.23;6.50;;;;;;;15.39;71.09;101990.25;5210717;27;20408;-74
2024/04/13 05:39:43;;;;;;;10.63;6.23;;;;;;;15.39;70.74;101986.75;5211245;27;20707;-74
2024/04/13 05:42:09;;;;;;;7.60;6.70;;;;;;;15.40;70.84;101981.53;5245321;22;20742;-75
2024/04/13 05:44:34;;;;;;;7.97;6.80;;;;;;;15.71;70.29;101976.53;5244465;27;20232;-77
2024/04/13 05:46:59;;;;;;;7.43;6.70;;;;;;;15.44;71.27;101975.44;5244290;27;20701;-75
2024/04/13 05:49:24;;;;;;;8.67;6.57;;;;;;;15.47;70.76;101980.69;5244012;27;20220;-76
2024/04/13 05:51:50;;;;;;;10.77;9.67;;;;;;;14.88;72.37;101978.34;5244102;27;20232;-75
2024/04/13 05:54:15;;;;;;;9.37;6.60;;;;;;;15.53;70.69;101982.50;5244033;27;20263;-75
2024/04/13 05:56:40;;;;;;;8.20;6.37;;;;;;;15.63;70.68;101983.47;5270777;27;20232;-76
2024/04/13 05:59:06;;;;;;;7.83;6.77;;;;;;;15.73;70.99;101987.94;5245065;27;20255;-75
2024/04/13 06:01:32;;;;;;;8.30;7.00;;;;;;;15.59;70.20;101994.84;5247743;27;20270;-73
2024/04/13 06:03:57;;;;;;;7.70;6.50;;;;;;;15.51;71.08;101988.63;5246425;27;20220;-73
2024/04/13 06:06:23;;;;;;;8.00;7.17;;;;;;;15.53;71.44;101992.13;5243773;27;20220;-75
2024/04/13 06:08:48;;;;;;;6.70;6.10;;;;;;;15.52;71.05;101988.66;5244428;27;20804;-77
2024/04/13 06:11:14;;;;;;;7.57;6.60;;;;;;;15.52;71.26;101986.00;5243863;27;20283;-76
2024/04/13 06:13:41;;;;;;;8.80;7.50;;;;;;;15.29;71.51;101991.06;5242247;27;20769;-76
2024/04/13 06:16:06;;;;;;;7.37;6.60;;;;;;;15.52;71.69;101975.50;5243658;27;20220;-75
2024/04/13 06:18:31;;;;;;;8.57;7.60;;;;;;;15.46;71.63;101972.81;5243819;27;21044;-76
2024/04/13 06:20:56;;;;;;;9.10;6.77;;;;;;;15.87;70.39;101974.94;5243576;27;20271;-75
2024/04/13 06:23:22;;;;;;;10.50;6.77;;;;;;;15.93;70.77;101977.59;5243593;27;20224;-75
2024/04/13 06:25:47;;;;;;;7.37;6.57;;;;;;;16.00;70.58;101989.91;5243631;27;20224;-76
2024/04/13 06:28:14;;;;;;;7.80;7.00;;;;;;;15.65;70.81;101981.72;5243374;27;20263;-76
2024/04/13 06:30:42;;;;;;;7.90;6.77;;;;;;;15.76;71.93;101990.59;5269910;27;20246;-76
2024/04/13 06:33:08;;;;;;;8.67;7.03;;;;;;;15.59;71.90;101987.81;5243444;27;20444;-75
2024/04/13 06:35:33;;;;;;;7.70;6.80;;;;;;;15.83;71.02;101989.81;5243714;27;20504;-76
2024/04/13 06:37:58;;;;;;;8.33;7.33;;;;;;;16.10;70.16;101976.84;5243060;27;20437;-75
2024/04/13 06:40:24;;;;;;;10.13;7.00;;;;;;;16.48;68.91;101979.69;5243448;27;20266;-75
2024/04/13 06:42:50;;;;;;;10.00;6.50;;;;;;;16.20;70.14;101969.91;5243301;27;20271;-75
2024/04/13 06:45:16;;;;;;;6.77;6.07;;;;;;;16.31;68.92;101963.81;5244098;27;20219;-76
2024/04/13 06:47:41;;;;;;;8.50;6.33;;;;;;;16.67;68.42;101966.63;5243096;27;20472;-75
2024/04/13 06:50:07;;;;;;;8.50;6.67;;;;;;;17.03;67.23;101961.50;5242978;27;20447;-75
2024/04/13 06:52:32;;;;;;;6.90;6.20;;;;;;;16.63;69.20;101983.28;5243042;27;20240;-74
2024/04/13 06:54:58;;;;;;;8.87;6.33;;;;;;;16.41;68.91;101972.66;5242772;27;20224;-76
2024/04/13 06:57:25;;;;;;;6.97;6.27;;;;;;;16.60;68.79;101968.34;5269436;27;20628;-76
2024/04/13 06:59:51;;;;;;;9.53;6.73;;;;;;;16.77;67.90;101962.28;5243315;27;20498;-76
2024/04/13 07:02:16;;;;;;;7.13;5.80;;;;;;;16.86;67.12;101966.66;5242991;27;20978;-75
2024/04/13 07:04:41;;;;;;;8.97;6.47;;;;;;;15.95;69.34;101972.34;5243142;27;20981;-77
2024/04/13 07:07:07;;;;;;;9.00;6.53;;;;;;;16.81;68.20;101959.63;5243451;27;20220;-77
2024/04/13 07:09:32;;;;;;;6.97;6.23;;;;;;;15.90;69.90;101963.53;5244331;27;20270;-78
2024/04/13 07:11:57;;;;;;;11.47;9.20;;;;;;;16.14;70.17;101966.38;5243406;27;20346;-75
2024/04/13 07:14:23;;;;;;;10.03;7.60;;;;;;;16.73;69.17;101960.50;5243245;27;20262;-75
2024/04/13 07:16:49;;;;;;;7.10;6.40;;;;;;;16.85;68.50;101957.91;5242615;27;20216;-76
2024/04/13 07:19:15;;;;;;;9.40;6.47;;;;;;;16.32;69.03;101967.34;5242698;27;20712;-76
2024/04/13 07:21:40;;;;;;;6.70;5.73;;;;;;;17.24;67.58;101968.53;5242504;27;20511;-76
2024/04/13 07:24:05;;;;;;;7.37;6.67;;;;;;;17.36;66.03;101971.22;5242857;27;20651;-75
2024/04/13 07:26:30;;;;;;;7.37;6.47;;;;;;;16.82;67.40;101973.72;5243205;27;20228;-76
2024/04/13 07:28:56;;;;;;;7.70;6.23;;;;;;;17.57;65.59;101969.47;5242273;27;20267;-76
2024/04/13 07:31:21;;;;;;;7.37;6.50;;;;;;;17.71;66.05;101967.72;5242663;27;20244;-75
2024/04/13 07:33:47;;;;;;;7.50;5.80;;;;;;;17.49;65.41;101959.81;5242729;27;20267;-76
2024/04/13 07:36:12;;;;;;;6.20;5.60;;;;;;;17.30;65.79;101958.03;5242756;27;20221;-76
2024/04/13 07:38:37;;;;;;;11.03;6.07;;;;;;;17.80;65.45;101961.56;5242287;27;20224;-76
2024/04/13 07:41:03;;;;;;;12.00;6.77;;;;;;;17.27;66.09;101968.56;5242276;27;20267;-75
2024/04/13 07:43:30;;;;;;;6.80;5.87;;;;;;;17.42;65.43;101965.94;5242645;27;20220;-76
2024/04/13 07:45:55;;;;;;;16.60;14.80;;;;;;;17.81;64.23;101976.50;5242790;27;20217;-76
2024/04/13 07:48:20;;;;;;;8.27;7.30;;;;;;;17.88;64.49;101969.47;5240314;27;20913;-77
2024/04/13 07:50:45;;;;;;;8.90;5.90;;;;;;;18.07;63.20;101963.31;5243203;27;20232;-77
2024/04/13 07:53:11;;;;;;;7.27;5.63;;;;;;;18.40;63.59;101968.50;5246189;27;20220;-77
2024/04/13 07:55:36;;;;;;;10.40;5.97;;;;;;;18.20;63.70;101961.53;5247089;27;20236;-78
2024/04/13 07:58:02;;;;;;;6.37;5.27;;;;;;;18.29;63.57;101969.44;5244423;27;20224;-76
2024/04/13 08:00:27;;;;;;;7.10;5.50;;;;;;;17.83;64.07;101974.72;5246733;27;20710;-76
2024/04/13 08:02:53;;;;;;;6.40;5.37;;;;;;;18.00;64.18;101977.41;5276048;27;20228;-77
2024/04/13 08:05:18;;;;;;;8.40;5.67;;;;;;;18.46;62.94;101974.63;5246008;27;20292;-77
2024/04/13 08:07:43;;;;;;;8.00;5.53;;;;;;;18.04;64.07;101958.03;5245388;27;20711;-75
2024/04/13 08:10:09;;;;;;;9.53;5.57;;;;;;;18.60;62.12;101960.50;5245596;27;20258;-77
2024/04/13 08:12:34;;;;;;;7.80;5.97;;;;;;;18.07;63.54;101965.94;5245939;27;20232;-77
2024/04/13 08:14:59;;;;;;;6.00;5.40;;;;;;;18.29;63.92;101971.16;5245286;27;20267;-76
2024/04/13 08:17:28;;;;;;;9.90;5.10;;;;;;;18.27;63.00;101975.59;5245640;27;20317;-76
2024/04/13 08:19:54;;;;;;;7.63;5.47;;;;;;;18.55;62.16;101954.34;5245088;27;20292;-75
2024/04/13 08:22:19;;;;;;;6.23;5.57;;;;;;;18.75;61.49;101955.13;5244908;27;21052;-76
2024/04/13 08:24:45;;;;;;;8.00;5.53;;;;;;;18.52;62.17;101953.50;5245270;27;20271;-76
2024/04/13 08:27:10;;;;;;;9.20;5.43;;;;;;;17.87;63.20;101965.06;5246396;27;20586;-77
2024/04/13 08:29:35;;;;;;;9.77;6.20;;;;;;;18.70;62.60;101962.22;5246736;27;20325;-76
2024/04/13 08:32:01;;;;;;;11.63;6.23;;;;;;;18.76;61.65;101964.81;5247572;27;20240;-77
2024/04/13 08:34:26;;;;;;;8.53;5.60;;;;;;;19.12;60.60;101967.28;5245711;27;20652;-76
2024/04/13 08:36:52;;;;;;;8.90;5.70;;;;;;;18.61;61.52;101970.19;5247965;27;20271;-76
2024/04/13 08:39:18;;;;;;;7.30;5.20;;;;;;;19.04;60.49;101954.16;5250056;27;20220;-76
2024/04/13 08:42:03;;;;;;;8.93;6.00;;;;;;;19.64;59.88;101953.69;5250555;27;20597;-76
2024/04/13 08:44:30;;;;;;;6.23;5.63;;;;;;;18.81;60.96;101956.91;5245212;27;20502;-76
2024/04/13 08:46:57;;;;;;;10.00;5.57;;;;;;;18.72;62.73;101949.88;5247444;27;20452;-76
2024/04/13 08:49:24;;;;;;;7.37;5.97;;;;;;;18.80;62.34;101958.63;5246116;27;20535;-75
2024/04/13 08:51:49;;;;;;;8.90;5.70;;;;;;;19.16;60.58;101961.13;5245083;27;20821;-76
2024/04/13 08:54:16;;;;;;;10.23;5.93;;;;;;;18.99;60.96;101959.44;5242778;27;20475;-75
2024/04/13 08:56:42;;;;;;;7.60;5.63;;;;;;;19.34;60.33;101952.19;5245057;27;20274;-76
2024/04/13 08:59:10;;;;;;;8.03;5.70;;;;;;;18.80;61.98;101957.78;5245334;27;20451;-76
2024/04/13 09:01:37;;;;;;;8.07;5.90;;;;;;;19.64;59.57;101958.13;5242784;27;20524;-76
2024/04/13 09:04:04;;;;;;;7.57;5.50;;;;;;;19.93;59.71;101949.03;5245949;27;20456;-76
2024/04/13 09:06:30;;;;;;;7.23;5.93;;;;;;;19.62;60.02;101955.47;5246076;27;20670;-75
2024/04/13 09:08:57;;;;;;;7.00;5.87;;;;;;;20.31;58.51;101955.69;5244011;27;20460;-76
2024/04/13 09:11:22;;;;;;;9.33;6.10;;;;;;;19.75;59.23;101952.72;5246910;27;20296;-75
2024/04/13 09:13:51;;;;;;;8.30;5.40;;;;;;;19.75;59.21;101955.38;5246063;27;20544;-77
2024/04/13 09:16:17;;;;;;;10.77;6.73;;;;;;;19.83;60.14;101949.13;5244983;27;20221;-76
2024/04/13 09:18:42;;;;;;;7.90;5.90;;;;;;;20.42;58.37;101948.50;5247546;27;20500;-77
2024/04/13 09:21:08;;;;;;;10.43;5.67;;;;;;;20.19;58.39;101936.41;5245153;27;20472;-78
2024/04/13 09:23:34;;;;;;;7.40;5.40;;;;;;;20.97;56.35;101941.63;5244563;27;20276;-77
2024/04/13 09:26:08;;;;;;;6.87;5.70;;;;;;;19.95;58.05;101941.97;5244375;27;20733;-76
2024/04/13 09:28:44;;;;;;;6.87;5.20;;;;;;;20.33;56.78;101935.38;5245255;27;20219;-75
2024/04/13 09:31:11;;;;;;;6.20;5.17;;;;;;;20.31;58.20;101931.84;5244213;27;20527;-77
2024/04/13 09:33:37;;;;;;;7.83;5.70;;;;;;;20.78;56.39;101922.47;5245791;27;20456;-77
2024/04/13 09:36:03;;;;;;;11.07;5.70;;;;;;;18.96;59.60;101927.75;5245353;27;20447;-77
2024/04/13 09:38:28;;;;;;;9.37;5.43;;;;;;;19.77;58.69;101928.00;5244416;27;20534;-79
2024/04/13 09:41:00;;;;;;;7.07;5.30;;;;;;;20.03;57.78;101919.81;5247901;27;20746;-79
2024/04/13 09:43:26;;;;;;;9.07;6.20;;;;;;;20.34;58.40;101918.59;5246621;27;20266;-76
2024/04/13 09:46:01;;;;;;;9.00;5.83;;;;;;;20.79;55.72;101918.91;5245500;27;20451;-76
2024/04/13 09:48:27;;;;;;;7.80;5.60;;;;;;;21.18;55.52;101921.84;5242602;27;20219;-76
2024/04/13 09:50:53;;;;;;;10.83;5.30;;;;;;;21.18;55.54;101929.81;5244051;27;20506;-75
2024/04/13 09:53:18;;;;;;;8.57;5.23;;;;;;;21.03;55.70;101924.75;5244268;27;20251;-76
2024/04/13 09:55:44;;;;;;;8.67;5.63;;;;;;;21.10;55.44;101917.59;5244379;27;20281;-76
2024/04/13 09:58:12;;;;;;;10.07;7.00;;;;;;;21.63;54.74;101922.94;5244861;27;20232;-77
2024/04/13 10:00:40;;;;;;;10.07;7.60;;;;;;;21.53;54.50;101917.78;5245646;27;20560;-75
2024/04/13 10:03:05;;;;;;;11.47;8.03;;;;;;;21.31;54.40;101913.69;5244950;27;20440;-75
2024/04/13 10:05:33;;;;;;;8.43;6.47;;;;;;;20.93;55.21;101917.84;5245170;27;21042;-77
2024/04/13 10:07:59;;;;;;;8.03;6.37;;;;;;;20.41;55.74;101922.91;5245154;27;20233;-76
2024/04/13 10:10:26;;;;;;;7.17;6.17;;;;;;;20.71;54.44;101909.31;5246069;27;20868;-76
2024/04/13 10:12:54;;;;;;;13.23;6.70;;;;;;;20.82;55.04;101897.69;5245882;27;20459;-77
2024/04/13 10:15:19;;;;;;;7.17;5.77;;;;;;;21.04;53.35;101894.72;5245541;27;20459;-76
2024/04/13 10:17:46;;;;;;;6.90;5.93;;;;;;;20.37;54.92;101884.13;5244704;27;20488;-77
2024/04/13 10:20:13;;;;;;;7.50;5.60;;;;;;;20.74;54.80;101896.88;5243485;27;20260;-75
2024/04/13 10:22:38;;;;;;;8.90;6.07;;;;;;;20.60;54.26;101888.25;5244635;27;20468;-76
2024/04/13 10:25:06;;;;;;;6.33;5.20;;;;;;;20.45;54.16;101886.69;5245382;27;20495;-77
2024/04/13 10:27:33;;;;;;;9.87;6.63;;;;;;;21.12;52.96;101884.84;5246519;27;20776;-75
2024/04/13 10:29:59;;;;;;;6.40;5.10;;;;;;;20.80;53.67;101886.22;5244231;27;20813;-76
2024/04/13 10:32:24;;;;;;;10.50;5.10;;;;;;;20.81;53.43;101877.38;5244999;27;20460;-77
2024/04/13 10:34:51;;;;;;;8.50;5.33;;;;;;;21.28;53.25;101871.31;5246120;27;21037;-76
2024/04/13 10:37:34;;;;;;;7.70;6.00;;;;;;;20.71;54.22;101880.19;5245298;27;20348;-74
2024/04/13 10:40:02;;;;;;;7.73;5.30;;;;;;;21.79;52.11;101878.41;5244129;27;20453;-75
2024/04/13 10:42:41;;;;;;;8.00;5.20;;;;;;;22.11;51.34;101871.56;5244658;27;20541;-75
2024/04/13 10:45:19;;;;;;;9.27;5.50;;;;;;;22.38;51.00;101867.50;5244461;27;20502;-78
2024/04/13 10:47:46;;;;;;;10.93;8.30;;;;;;;22.85;49.40;101859.34;5244353;27;20491;-77
2024/04/13 10:50:13;;;;;;;7.13;6.07;;;;;;;22.55;49.64;101867.13;5244155;27;20495;-75
2024/04/13 10:52:39;;;;;;;9.10;4.43;;;;;;;22.54;50.96;101860.94;5243415;27;20467;-78
2024/04/13 10:55:05;;;;;;;6.03;4.50;;;;;;;22.52;50.03;101859.22;5243208;27;20471;-78
2024/04/13 10:57:31;;;;;;;6.93;4.97;;;;;;;22.53;50.16;101872.47;5245702;27;20254;-76
2024/04/13 10:59:56;;;;;;;7.50;4.53;;;;;;;22.61;48.35;101868.75;5245547;27;20224;-77
2024/04/13 11:02:21;;;;;;;6.10;4.70;;;;;;;22.39;48.74;101863.91;5245755;27;20236;-77
2024/04/13 11:04:47;;;;;;;8.20;4.50;;;;;;;22.49;49.07;101867.28;5247178;27;20224;-77
2024/04/13 11:07:14;;;;;;;7.13;4.77;;;;;;;23.70;46.98;101867.84;5244019;27;20224;-75
2024/04/13 11:09:42;;;;;;;6.60;4.33;;;;;;;23.71;47.47;101869.59;5242913;27;20776;-77
2024/04/13 11:12:12;;;;;;;5.30;4.63;;;;;;;23.80;47.02;101856.03;5245301;27;20580;-75
2024/04/13 11:14:38;;;;;;;7.70;4.43;;;;;;;23.81;45.25;101852.44;5243521;27;20844;-75
2024/04/13 11:17:04;;;;;;;7.73;4.33;;;;;;;24.61;43.73;101841.22;5243933;27;20973;-75